« Back
NWS Peachtree City, Ga » Text Product » ATL Terminal Aerodrome Forecast


Printer-friendly Version
Current Version              Previous Versions:   1  2  3  4  5  6  7  8  9  

Terminal Aerodrome Forecast

538
FTUS42 KFFC 201700
TAFATL
TAF
KATL 201732Z 2018/2124 29010KT P6SM VCSH BKN035
      TEMPO 2018/2022 VRB15G25KT 3SM -TSRA BR BKN030CB
     FM210200 29004KT P6SM FEW070
     FM211600 30006KT P6SM SCT060=



USA.gov is the U.S. government's official web portal to all federal, state and local government web resources and services.